GAA weather

Guamal Airport
Guamal, Magdalena Department, Colombia

Public forecast

Using degrees Celsius for public forecast. Weather courtesy of forecast.io.

METAR (pilot weather report)

Report is more than 6 hours old.

Closest report is Las Brujas Airport, 63.3 nm (117.3 km) W. Retrieved 2019/03/20 14:00 UTC (6 days ago):

SKCZ 201400Z 00000KT 8000 SCT015 SCT040 28/24 A2994 RMK HZ

TAF (pilot weather forecast)

Forecast is more than 12 hours old.

Closest forecast is Rafael Nuñez International Airport, 108.4 nm (200.8 km) NW. Retrieved 2019/03/24 18:34 UTC (2 days ago):

TAF SKCG 241700Z 2418/2518 01015KT 9999 FEW020 BECMG 2503/2505 02007KT TEMPO 2510/2512 8000 SCT010 TX32/2418Z TN25/2511Z